Search for airport 
image banner adimage banner adimage banner ad
image banner ad

KTNP - Twentynine Palms

Located in Twentynine Palms, United States

ICAO - TNP, IATA -

Data provided by Airmate  

General information

Coordinates: N34°7'54" W115°56'45"
Elevation is 1888 feet MSL.
Magnetic variation is 12° East
View others Airports in California

Operational data

Special qualification required
Current time UTC:
Current local time:
Weather at : KNXP - Twentynine Palms Self ( 27 km )
METAR: KNXP 240856Z AUTO 31005KT 10SM CLR 22/15 A3002 RMK AO2 SLP129 T02220150 58003
TAF: TAF KNXP 2321/2421 25012KT 9999 VCTS FEW050 SCT110 621509 622401 QNH2995INS FM240130 28010KT 9999 SCT110 QNH2996INS BECMG 2408/2410 28008KT 9999 FEW080 QNH3000INS BECMG 2414/2416 VRB06KT 9999 SKC QNH2994INS T33/2322Z T22/2413Z
View NOTAMs / SUP AIP / TFR affecting this airport [VIEW]
Communications frequencies: [VIEW]

Runways:

RWY identifierQFULength (ft)Width (ft)SurfaceLDA (ft)
0890°553175ASPH
26270°553175ASPH
17180°379750ASPH
35379750ASPH

Airport contact information

Address: Twentynine Palms United States

Satellite view of KTNP